KGON/GON METAR and TAF weather

Enter ICAO airport designator
Station Type Date Time Source
KGON METAR 2019/12/08 18:56 UTC NOAA

KGON 081856Z 22009KT 10SM CLR 03/M06 A3047 RMK AO2 SLP318 T00281056


Station Type Date Time Source
KGON Decoded METAR 2019/12/08 18:56 UTC NOAA

GROTON/NEW LONDON AIRPORT , CT, United States (KGON) 41-20N 72-03W 3M
Dec 08, 2019 - 01:56 PM EST / 2019.12.08 1856 UTC
Wind: from the SW (220 degrees) at 10 MPH (9 KT):0
Visibility: 10 mile(s):0
Sky conditions: clear
Temperature: 37.0 F (2.8 C)
Dew Point: 21.9 F (-5.6 C)
Relative Humidity: 53%
Pressure (altimeter): 30.47 in. Hg (1031 hPa)
ob: KGON 081856Z 22009KT 10SM CLR 03/M06 A3047 RMK AO2 SLP318 T00281056
cycle: 19

Station Type Date Time Source
KGON TAF 2019/12/08 18:57 UTC NOAA

TAF
AMD KGON 081754Z 0818/0918 16004KT P6SM SCT250
FM081900 19010KT P6SM SCT250
FM082100 20011G17KT P6SM FEW035 BKN250
FM090800 20008KT P6SM SCT025 BKN035
TEMPO 0910/0912 -RA SCT015 BKN025
FM091200 18005KT 5SM -RA BR SCT008 OVC015
FM091700 18014G20KT 3SM RA BR BKN005 OVC010 WS020/20050KT

Example: see airport list